Time;durP1;ratioP1;P1;durP2;ratioP2;P2;SDS_P1;SDS_P2;PMS_P1;PMS_P2;Temp;Humidity;BMP_temperature;BMP_pressure;BME280_temperature;BME280_humidity;BME280_pressure;Samples;Min_cycle;Max_cycle;Signal;HPM_P1;HPM_P2
2023/06/04 00:01:49;;;;;;;7.53;5.67;;;;;;;14.66;68.10;98550.69;4912385;28;20251;-62
2023/06/04 00:04:16;;;;;;;9.17;5.87;;;;;;;14.61;67.43;98556.44;4916735;28;20277;-62
2023/06/04 00:06:44;;;;;;;10.27;6.03;;;;;;;14.61;68.72;98554.66;4915687;28;20293;-62
2023/06/04 00:09:12;;;;;;;9.03;5.33;;;;;;;14.56;67.95;98549.13;4916979;28;20343;-62
2023/06/04 00:11:39;;;;;;;9.77;5.23;;;;;;;14.53;68.18;98552.09;4917517;28;20240;-62
2023/06/04 00:14:06;;;;;;;9.73;5.40;;;;;;;14.45;68.42;98552.19;4916112;28;20226;-62
2023/06/04 00:16:35;;;;;;;8.73;5.43;;;;;;;14.43;69.33;98551.53;4912227;28;20301;-62
2023/06/04 00:19:02;;;;;;;9.13;5.87;;;;;;;14.39;69.94;98555.50;4917230;28;20647;-62
2023/06/04 00:21:28;;;;;;;9.67;5.30;;;;;;;14.28;70.43;98551.50;4912242;29;20240;-62
2023/06/04 00:23:56;;;;;;;8.07;5.50;;;;;;;14.26;70.82;98556.13;4916190;28;20287;-62
2023/06/04 00:26:23;;;;;;;7.77;6.00;;;;;;;14.13;70.75;98552.28;4921508;28;20722;-62
2023/06/04 00:28:50;;;;;;;8.90;5.43;;;;;;;14.03;70.58;98557.75;4931188;28;20246;-62
2023/06/04 00:31:16;;;;;;;10.63;5.70;;;;;;;14.03;72.43;98557.75;4925105;28;20599;-62
2023/06/04 00:33:43;;;;;;;9.67;6.00;;;;;;;13.99;72.46;98559.06;4915208;28;20688;-62
2023/06/04 00:36:10;;;;;;;8.83;6.57;;;;;;;13.96;72.27;98554.19;4932293;29;20234;-62
2023/06/04 00:38:36;;;;;;;8.63;5.53;;;;;;;13.85;73.10;98555.41;4912144;28;20230;-62
2023/06/04 00:41:04;;;;;;;12.50;6.27;;;;;;;13.81;73.51;98550.66;4916377;29;20245;-62
2023/06/04 00:43:31;;;;;;;8.57;5.83;;;;;;;13.77;74.26;98552.84;4914007;28;20269;-62
2023/06/04 00:45:58;;;;;;;8.53;5.87;;;;;;;13.76;74.46;98556.44;4918204;28;20741;-62
2023/06/04 00:48:27;;;;;;;8.33;6.00;;;;;;;13.68;75.02;98559.13;4931684;28;20226;-62
2023/06/04 00:50:54;;;;;;;8.17;5.63;;;;;;;13.59;76.25;98558.34;4914812;28;20232;-62
2023/06/04 00:53:21;;;;;;;9.63;5.70;;;;;;;13.55;76.53;98565.72;4917865;28;20245;-62
2023/06/04 00:55:48;;;;;;;7.90;5.47;;;;;;;13.49;76.08;98550.69;4930153;28;20242;-62
2023/06/04 00:58:16;;;;;;;10.83;5.70;;;;;;;13.54;75.74;98555.44;4930460;28;20246;-62
2023/06/04 01:00:44;;;;;;;9.67;5.70;;;;;;;13.48;76.20;98566.59;4911419;28;20337;-62
2023/06/04 01:03:15;;;;;;;9.60;6.27;;;;;;;13.41;76.60;98567.28;4926269;28;20230;-62
2023/06/04 01:05:49;;;;;;;12.90;6.33;;;;;;;13.45;77.00;98565.13;4912682;28;20231;-62
2023/06/04 01:08:15;;;;;;;9.03;5.90;;;;;;;13.58;74.49;98572.44;4916503;28;20242;-62
2023/06/04 01:10:51;;;;;;;10.53;5.77;;;;;;;13.55;74.35;98573.59;4915099;28;20699;-62
2023/06/04 01:13:21;;;;;;;8.03;5.90;;;;;;;13.57;75.82;98569.00;4914666;28;20232;-62
2023/06/04 01:15:47;;;;;;;9.20;5.97;;;;;;;13.53;76.37;98567.72;4910073;28;20238;-62
2023/06/04 01:18:27;;;;;;;9.90;6.03;;;;;;;13.50;76.62;98568.03;4926036;28;20226;-62
2023/06/04 01:20:58;;;;;;;9.93;6.80;;;;;;;13.54;77.15;98564.09;4913455;29;20320;-62
2023/06/04 01:23:34;;;;;;;7.43;6.03;;;;;;;13.53;76.96;98572.16;4920080;28;20707;-62
2023/06/04 01:26:05;;;;;;;9.40;6.10;;;;;;;13.46;77.05;98563.34;4915622;28;20237;-62
2023/06/04 01:28:35;;;;;;;9.30;6.43;;;;;;;13.50;76.58;98568.03;4918211;28;20805;-62
2023/06/04 01:31:03;;;;;;;11.63;6.67;;;;;;;13.45;77.30;98567.75;4921249;28;20593;-62
2023/06/04 01:33:30;;;;;;;10.80;6.40;;;;;;;13.38;77.40;98556.28;4918693;29;20238;-62
2023/06/04 01:35:59;;;;;;;14.37;7.90;;;;;;;13.33;78.88;98554.19;4930145;28;20238;-62
2023/06/04 01:38:26;;;;;;;9.67;6.30;;;;;;;13.32;78.63;98559.56;4917944;29;20234;-62
2023/06/04 01:40:56;;;;;;;9.63;6.20;;;;;;;13.24;78.91;98565.69;4925583;28;20229;-62
2023/06/04 01:43:25;;;;;;;14.00;6.53;;;;;;;13.18;79.33;98564.56;4915459;28;20227;-62
2023/06/04 01:45:54;;;;;;;10.63;6.97;;;;;;;13.14;79.22;98566.69;4916285;28;20237;-62
2023/06/04 01:48:20;;;;;;;9.10;5.90;;;;;;;13.11;80.12;98561.78;4932491;28;20238;-62
2023/06/04 01:50:47;;;;;;;10.23;6.27;;;;;;;13.06;79.66;98563.28;4931586;28;20240;-62
2023/06/04 01:53:14;;;;;;;10.77;6.10;;;;;;;13.01;80.51;98558.53;4918260;29;20233;-62
2023/06/04 01:55:41;;;;;;;10.17;6.43;;;;;;;12.92;81.02;98562.16;4913357;28;20235;-62
2023/06/04 01:58:09;;;;;;;13.00;6.70;;;;;;;12.93;81.99;98562.00;4918988;29;20237;-62
2023/06/04 02:00:35;;;;;;;10.47;6.67;;;;;;;12.92;82.17;98577.88;4912205;28;20329;-62
2023/06/04 02:03:04;;;;;;;8.67;6.87;;;;;;;12.85;81.89;98567.25;4919256;28;20243;-62
2023/06/04 02:05:31;;;;;;;11.23;6.87;;;;;;;12.89;82.05;98565.94;4930970;28;20237;-62
2023/06/04 02:08:01;;;;;;;13.23;7.03;;;;;;;12.94;82.81;98558.41;4918918;29;20702;-62
2023/06/04 02:10:28;;;;;;;12.10;6.60;;;;;;;12.87;82.95;98564.47;4920301;29;20670;-63
2023/06/04 02:12:56;;;;;;;10.33;6.83;;;;;;;12.82;82.50;98557.13;4929938;28;20248;-62
2023/06/04 02:15:26;;;;;;;10.03;6.70;;;;;;;12.83;83.06;98561.38;4917230;29;20230;-62
2023/06/04 02:17:58;;;;;;;13.13;6.80;;;;;;;12.88;82.28;98566.09;4914256;28;20305;-62
2023/06/04 02:20:26;;;;;;;11.10;7.20;;;;;;;12.92;82.40;98559.53;4933317;28;20216;-62
2023/06/04 02:22:52;;;;;;;11.90;6.70;;;;;;;12.97;82.19;98558.06;4911327;28;20242;-62
2023/06/04 02:25:19;;;;;;;13.87;6.77;;;;;;;12.94;83.13;98554.94;4926098;28;20253;-62
2023/06/04 02:27:45;;;;;;;10.57;6.80;;;;;;;12.90;82.08;98556.28;4918739;28;20232;-62
2023/06/04 02:30:12;;;;;;;9.97;6.40;;;;;;;12.86;82.20;98566.28;4918230;29;20237;-63
2023/06/04 02:32:39;;;;;;;12.90;6.97;;;;;;;12.86;82.55;98555.81;4914238;28;20281;-63
2023/06/04 02:35:07;;;;;;;10.70;6.60;;;;;;;12.96;82.26;98559.06;4919815;28;20245;-63
2023/06/04 02:37:34;;;;;;;11.13;6.50;;;;;;;12.89;82.26;98552.84;4914608;28;20248;-62
2023/06/04 02:40:01;;;;;;;9.63;6.97;;;;;;;12.96;81.73;98550.38;4915397;29;20230;-62
2023/06/04 02:42:28;;;;;;;12.27;6.70;;;;;;;12.93;82.01;98550.69;4918484;28;20245;-62
2023/06/04 02:44:54;;;;;;;12.53;6.90;;;;;;;13.14;81.28;98558.81;4913413;28;20241;-62
2023/06/04 02:47:21;;;;;;;9.60;6.80;;;;;;;13.07;81.57;98559.69;4929001;29;20230;-62
2023/06/04 02:49:47;;;;;;;11.17;6.40;;;;;;;13.09;80.76;98549.84;4923875;29;20233;-62
2023/06/04 02:52:14;;;;;;;9.20;6.57;;;;;;;13.08;80.51;98556.06;4918834;28;21078;-62
2023/06/04 02:54:46;;;;;;;10.03;7.00;;;;;;;13.11;80.44;98553.91;4917699;29;20236;-62
2023/06/04 02:57:12;;;;;;;9.63;6.53;;;;;;;13.10;80.85;98556.72;4932836;28;20304;-62
2023/06/04 02:59:44;;;;;;;10.90;6.87;;;;;;;13.17;81.57;98567.34;4912935;28;20221;-62
2023/06/04 03:02:12;;;;;;;8.40;6.53;;;;;;;13.07;81.13;98570.97;4933637;28;20779;-63
2023/06/04 03:04:44;;;;;;;10.03;6.57;;;;;;;13.07;81.08;98567.53;4912841;29;21120;-62
2023/06/04 03:07:11;;;;;;;10.43;6.43;;;;;;;13.07;80.10;98568.34;4918085;28;20245;-62
2023/06/04 03:10:05;;;;;;;8.80;6.50;;;;;;;13.06;80.55;98566.72;4914210;28;20248;-62
2023/06/04 03:12:32;;;;;;;11.83;6.83;;;;;;;13.05;80.08;98570.31;4912829;28;20354;-62
2023/06/04 03:14:58;;;;;;;12.10;6.77;;;;;;;13.05;79.55;98569.50;4924170;29;20242;-62
2023/06/04 03:17:26;;;;;;;11.33;6.73;;;;;;;13.10;79.92;98568.00;4932305;28;20224;-62
2023/06/04 03:19:53;;;;;;;12.07;6.43;;;;;;;13.11;79.84;98571.47;4911787;29;20255;-62
2023/06/04 03:22:20;;;;;;;9.30;5.53;;;;;;;13.12;79.88;98570.47;4932986;28;20249;-62
2023/06/04 03:24:46;;;;;;;13.63;7.17;;;;;;;13.09;79.82;98571.63;4930756;28;20245;-62
2023/06/04 03:27:14;;;;;;;11.53;6.23;;;;;;;13.09;79.59;98579.47;4926043;28;20241;-62
2023/06/04 03:29:45;;;;;;;10.60;6.77;;;;;;;13.09;80.46;98583.91;4910724;28;20308;-62
2023/06/04 03:32:13;;;;;;;11.47;6.27;;;;;;;13.04;81.39;98583.59;5182115;23;20232;-63
2023/06/04 03:34:46;;;;;;;10.60;6.77;;;;;;;13.03;81.44;98590.63;4957909;28;20229;-62
2023/06/04 03:37:38;;;;;;;11.50;6.30;;;;;;;12.97;81.42;98588.69;4961844;28;20245;-62
2023/06/04 03:40:07;;;;;;;11.10;6.40;;;;;;;12.92;81.16;98594.44;4958806;28;20262;-62
2023/06/04 03:42:37;;;;;;;9.60;6.23;;;;;;;12.84;82.55;98590.00;4958641;28;20232;-62
2023/06/04 03:45:05;;;;;;;7.93;7.00;;;;;;;12.82;82.72;98596.41;4961741;28;20640;-62
2023/06/04 03:47:33;;;;;;;10.47;7.43;;;;;;;12.77;83.31;98593.47;4945053;28;20241;-62
2023/06/04 03:49:59;;;;;;;10.07;6.13;;;;;;;12.70;82.95;98588.09;4961034;28;20235;-62
2023/06/04 03:52:26;;;;;;;9.17;7.00;;;;;;;12.62;83.76;98594.13;4961672;28;20255;-62
2023/06/04 03:54:53;;;;;;;9.60;6.97;;;;;;;12.59;83.92;98597.06;4958355;28;20303;-63
2023/06/04 03:57:20;;;;;;;9.07;6.50;;;;;;;12.58;84.70;98602.50;4960823;28;20347;-62
2023/06/04 03:59:48;;;;;;;11.47;6.70;;;;;;;12.53;85.12;98602.97;4958774;28;20792;-62
2023/06/04 04:02:15;;;;;;;10.57;6.47;;;;;;;12.53;86.24;98600.34;4945219;28;20240;-62
2023/06/04 04:04:45;;;;;;;10.80;6.90;;;;;;;12.53;86.28;98600.34;4941519;28;20235;-62
2023/06/04 04:07:12;;;;;;;9.03;6.87;;;;;;;12.54;85.83;98599.38;4946729;28;20227;-63
2023/06/04 04:09:46;;;;;;;9.97;6.57;;;;;;;12.55;86.33;98598.38;4934739;28;20260;-63
2023/06/04 04:12:13;;;;;;;9.03;6.43;;;;;;;12.58;86.70;98599.88;4961034;28;20232;-63
2023/06/04 04:14:46;;;;;;;8.17;6.47;;;;;;;12.58;86.92;98602.50;4941933;28;20238;-63
2023/06/04 04:17:15;;;;;;;10.63;7.27;;;;;;;12.64;86.70;98599.22;4945520;28;20227;-62
2023/06/04 04:19:45;;;;;;;14.23;6.90;;;;;;;12.67;88.06;98601.50;4942622;28;20246;-62
2023/06/04 04:22:12;;;;;;;10.83;6.90;;;;;;;12.69;88.67;98600.34;4946703;28;20630;-62
2023/06/04 04:24:45;;;;;;;9.40;6.70;;;;;;;12.76;89.19;98603.09;4943882;28;20236;-62
2023/06/04 04:27:11;;;;;;;11.20;6.70;;;;;;;12.88;87.49;98608.00;4961503;28;20347;-62
2023/06/04 04:30:04;;;;;;;11.43;7.03;;;;;;;12.99;87.51;98599.81;4943296;28;20247;-62
2023/06/04 04:32:33;;;;;;;10.90;7.27;;;;;;;13.18;87.53;98614.34;4943607;28;20240;-62
2023/06/04 04:35:00;;;;;;;10.30;7.00;;;;;;;13.34;86.36;98610.03;4960939;28;20259;-62
2023/06/04 04:37:33;;;;;;;8.80;6.10;;;;;;;13.53;85.04;98611.47;4957639;28;20231;-62
2023/06/04 04:39:59;;;;;;;10.00;6.37;;;;;;;13.69;84.92;98613.22;4961289;28;20243;-62
2023/06/04 04:42:30;;;;;;;8.33;6.53;;;;;;;13.89;83.91;98616.22;4958391;28;20288;-62
2023/06/04 04:44:57;;;;;;;11.53;6.83;;;;;;;14.03;83.56;98615.47;4960739;28;20236;-62
2023/06/04 04:47:26;;;;;;;9.33;6.40;;;;;;;14.20;82.99;98615.38;4944272;28;20264;-62
2023/06/04 04:49:54;;;;;;;9.30;6.97;;;;;;;14.28;82.80;98619.78;4934584;28;20678;-62
2023/06/04 04:52:20;;;;;;;10.60;6.27;;;;;;;14.34;82.14;98605.91;4948761;28;20332;-62
2023/06/04 04:54:47;;;;;;;11.17;6.53;;;;;;;14.39;81.61;98608.03;4945584;28;20242;-62
2023/06/04 04:57:16;;;;;;;12.20;6.63;;;;;;;14.31;82.23;98612.34;4964300;28;20315;-62
2023/06/04 04:59:48;;;;;;;9.33;6.53;;;;;;;14.36;80.98;98619.69;4935677;28;20230;-62
2023/06/04 05:02:15;;;;;;;8.70;5.77;;;;;;;14.39;81.82;98629.03;4964850;28;20320;-62
2023/06/04 05:04:47;;;;;;;8.50;6.60;;;;;;;14.37;79.37;98629.19;4946721;28;20332;-62
2023/06/04 05:07:17;;;;;;;9.63;6.80;;;;;;;14.23;77.20;98636.03;4948405;28;20281;-62
2023/06/04 05:09:44;;;;;;;10.00;6.90;;;;;;;14.26;77.81;98633.06;4960899;28;20637;-62
2023/06/04 05:12:12;;;;;;;11.97;6.63;;;;;;;14.32;76.52;98637.63;4964032;28;20241;-62
2023/06/04 05:14:44;;;;;;;8.83;6.50;;;;;;;14.17;76.90;98637.56;4936431;28;20226;-62
2023/06/04 05:17:12;;;;;;;7.60;6.20;;;;;;;14.13;77.38;98640.69;4948119;28;20234;-62
2023/06/04 05:19:47;;;;;;;12.80;6.43;;;;;;;14.22;76.81;98642.28;4945334;28;20232;-62
2023/06/04 05:22:15;;;;;;;13.93;7.10;;;;;;;14.33;77.61;98646.28;4948328;28;20257;-62
2023/06/04 05:24:46;;;;;;;13.67;6.63;;;;;;;14.30;77.15;98646.66;4944348;28;20236;-63
2023/06/04 05:27:12;;;;;;;9.90;7.20;;;;;;;14.27;75.56;98647.81;4962608;28;20694;-63
2023/06/04 05:29:45;;;;;;;8.57;6.40;;;;;;;14.41;74.91;98651.50;4944700;28;20723;-63
2023/06/04 05:32:13;;;;;;;10.83;6.47;;;;;;;14.48;75.26;98654.25;4963943;28;20231;-63
2023/06/04 05:34:47;;;;;;;10.80;6.77;;;;;;;14.54;75.18;98657.97;4959748;28;20230;-63
2023/06/04 05:37:16;;;;;;;9.27;6.20;;;;;;;14.63;76.16;98658.75;4947929;28;20234;-63
2023/06/04 05:39:47;;;;;;;10.40;5.90;;;;;;;14.74;76.48;98663.63;4944206;28;20238;-63
2023/06/04 05:42:15;;;;;;;12.43;6.67;;;;;;;14.80;75.89;98662.06;4963138;28;20250;-63
2023/06/04 05:44:46;;;;;;;8.37;5.70;;;;;;;14.89;77.45;98663.63;4943489;28;20233;-63
2023/06/04 05:47:18;;;;;;;8.97;5.83;;;;;;;15.04;76.22;98664.50;4963184;28;20246;-63
2023/06/04 05:49:46;;;;;;;10.90;6.60;;;;;;;15.04;77.08;98658.41;4935833;28;20317;-63
2023/06/04 05:52:12;;;;;;;12.63;6.50;;;;;;;15.09;77.15;98660.50;4947633;28;20760;-63
2023/06/04 05:54:48;;;;;;;8.30;6.20;;;;;;;15.27;76.46;98663.63;4944386;28;20226;-63
2023/06/04 05:57:15;;;;;;;12.50;6.30;;;;;;;15.40;74.24;98659.50;4962114;28;20566;-63
2023/06/04 05:59:45;;;;;;;9.37;6.50;;;;;;;15.61;74.05;98656.16;4944256;28;20608;-63
2023/06/04 06:02:15;;;;;;;10.53;6.03;;;;;;;15.80;74.40;98657.41;4948589;28;20302;-63
2023/06/04 06:04:44;;;;;;;10.10;6.40;;;;;;;15.92;73.98;98663.88;4945648;28;20246;-63
2023/06/04 06:07:11;;;;;;;7.87;6.00;;;;;;;16.13;72.89;98662.28;4947480;28;21038;-63
2023/06/04 06:10:06;;;;;;;8.13;5.83;;;;;;;16.35;71.66;98663.09;4945621;28;20290;-63
2023/06/04 06:12:34;;;;;;;9.10;6.10;;;;;;;16.49;71.16;98657.97;4941811;28;20283;-63
2023/06/04 06:15:01;;;;;;;9.03;6.53;;;;;;;16.63;70.53;98670.28;4963087;28;20238;-63
2023/06/04 06:17:28;;;;;;;13.73;7.27;;;;;;;16.85;67.97;98670.25;4963262;28;20719;-63
2023/06/04 06:19:55;;;;;;;8.53;6.07;;;;;;;17.01;66.29;98674.44;4944429;28;20679;-63
2023/06/04 06:22:22;;;;;;;8.03;5.97;;;;;;;17.09;65.26;98684.03;4938165;28;20236;-63
2023/06/04 06:24:49;;;;;;;9.97;5.70;;;;;;;17.15;63.73;98685.91;4945684;28;20961;-63
2023/06/04 06:27:17;;;;;;;12.03;6.20;;;;;;;17.09;63.53;98697.22;4962925;28;20260;-63
2023/06/04 06:29:45;;;;;;;13.57;6.37;;;;;;;17.13;64.00;98702.94;4943981;28;20233;-63
2023/06/04 06:32:12;;;;;;;9.10;5.40;;;;;;;17.28;62.33;98708.94;4947979;28;20258;-63
2023/06/04 06:34:44;;;;;;;6.90;5.50;;;;;;;17.39;62.71;98715.50;4944746;28;20692;-63
2023/06/04 06:37:11;;;;;;;13.90;5.47;;;;;;;17.40;61.12;98714.50;4948280;28;20317;-63
2023/06/04 06:40:04;;;;;;;8.33;5.43;;;;;;;17.55;62.73;98724.94;4945700;28;20784;-63
2023/06/04 06:42:34;;;;;;;9.33;5.17;;;;;;;17.90;61.46;98724.13;4945482;28;20245;-63
2023/06/04 06:45:01;;;;;;;8.23;5.40;;;;;;;17.89;59.24;98710.09;4947945;28;20731;-63
2023/06/04 06:47:27;;;;;;;11.33;5.50;;;;;;;17.82;58.64;98715.34;4948259;28;20759;-63
2023/06/04 06:49:54;;;;;;;8.27;5.17;;;;;;;17.97;57.89;98715.19;4945043;28;20751;-63
2023/06/04 06:52:21;;;;;;;7.47;4.97;;;;;;;18.03;59.28;98716.25;4947880;28;20228;-63
2023/06/04 06:54:48;;;;;;;9.30;4.70;;;;;;;18.02;59.58;98717.28;4944635;28;20223;-63
2023/06/04 06:57:15;;;;;;;8.90;4.70;;;;;;;18.03;58.05;98718.09;4947848;28;20232;-63
2023/06/04 06:59:46;;;;;;;7.10;4.67;;;;;;;17.83;58.46;98727.53;4945370;28;20331;-63
2023/06/04 07:02:12;;;;;;;8.60;4.80;;;;;;;17.81;59.05;98724.28;4947520;28;20267;-63
2023/06/04 07:04:44;;;;;;;9.00;5.53;;;;;;;17.69;59.61;98726.63;4944575;28;20244;-63
2023/06/04 07:07:11;;;;;;;9.77;5.43;;;;;;;17.60;60.12;98725.16;4947642;28;20264;-63
2023/06/04 07:09:41;;;;;;;8.93;5.20;;;;;;;17.49;62.11;98734.44;4944754;28;20270;-63
2023/06/04 07:12:08;;;;;;;8.87;5.30;;;;;;;17.30;60.37;98732.47;4947023;28;20235;-63
2023/06/04 07:14:34;;;;;;;10.93;5.03;;;;;;;17.52;59.86;98746.41;4944786;28;20232;-63
2023/06/04 07:17:03;;;;;;;8.00;4.67;;;;;;;17.76;59.08;98745.16;4947424;28;20242;-63
2023/06/04 07:19:30;;;;;;;7.30;4.17;;;;;;;18.13;57.00;98743.13;4947641;28;20232;-63
2023/06/04 07:21:56;;;;;;;6.37;3.83;;;;;;;18.67;55.33;98748.56;4944894;28;20973;-63
2023/06/04 07:24:23;;;;;;;7.63;3.97;;;;;;;18.92;55.11;98742.72;4946596;28;20314;-63
2023/06/04 07:26:50;;;;;;;11.20;4.07;;;;;;;19.11;52.33;98735.00;4944399;28;20240;-63
2023/06/04 07:29:17;;;;;;;5.37;3.83;;;;;;;19.81;51.48;98744.28;4946972;28;20240;-63
2023/06/04 07:31:43;;;;;;;8.53;3.30;;;;;;;20.30;51.23;98752.69;4944444;28;20289;-63
2023/06/04 07:34:11;;;;;;;5.80;3.47;;;;;;;20.41;48.86;98751.22;4945099;28;20238;-63
2023/06/04 07:36:38;;;;;;;5.83;3.10;;;;;;;20.04;49.22;98749.94;4944206;28;20271;-63
2023/06/04 07:39:05;;;;;;;4.83;3.00;;;;;;;20.47;48.08;98750.38;4947234;28;20722;-63
2023/06/04 07:41:34;;;;;;;7.27;3.40;;;;;;;20.64;47.56;98745.38;4944267;28;20239;-63
2023/06/04 07:44:01;;;;;;;7.27;3.03;;;;;;;20.33;48.19;98742.47;4946685;28;20236;-63
2023/06/04 07:46:28;;;;;;;5.27;3.20;;;;;;;20.44;47.89;98748.13;4947083;28;20241;-63
2023/06/04 07:48:54;;;;;;;4.37;3.03;;;;;;;20.18;48.92;98747.22;4944494;28;20711;-63
2023/06/04 07:51:22;;;;;;;7.13;3.37;;;;;;;19.98;51.23;98739.38;4946778;28;20229;-63
2023/06/04 07:53:49;;;;;;;3.97;2.90;;;;;;;20.20;49.75;98745.19;4943866;28;20235;-63
2023/06/04 07:56:16;;;;;;;5.17;3.20;;;;;;;19.96;48.13;98747.50;4946948;28;20300;-63
2023/06/04 07:58:42;;;;;;;3.67;3.13;;;;;;;19.85;49.82;98751.59;4944310;28;20241;-63
2023/06/04 08:01:10;;;;;;;4.90;3.07;;;;;;;19.77;49.38;98744.69;4946989;28;20579;-63
2023/06/04 08:03:37;;;;;;;8.03;3.30;;;;;;;19.65;51.42;98740.25;4943439;28;20295;-63
2023/06/04 08:06:03;;;;;;;5.53;3.03;;;;;;;19.83;51.50;98744.88;4946943;28;20230;-63
2023/06/04 08:08:33;;;;;;;8.40;3.27;;;;;;;19.66;52.02;98752.47;4946695;28;20292;-63
2023/06/04 08:11:00;;;;;;;4.63;2.93;;;;;;;19.74;51.97;98750.41;4944498;28;20250;-63
2023/06/04 08:13:27;;;;;;;6.30;3.37;;;;;;;19.68;51.52;98761.81;4946970;28;20861;-63
2023/06/04 08:15:53;;;;;;;6.20;3.37;;;;;;;20.00;51.12;98753.22;4942077;28;20236;-63
2023/06/04 08:18:20;;;;;;;5.10;2.60;;;;;;;20.12;50.29;98756.84;4945237;28;20226;-63
2023/06/04 08:20:46;;;;;;;7.87;2.77;;;;;;;19.97;50.84;98751.78;4943449;28;20236;-63
2023/06/04 08:23:13;;;;;;;7.73;2.73;;;;;;;20.21;50.68;98746.81;4946779;28;20235;-63
2023/06/04 08:25:41;;;;;;;6.10;2.80;;;;;;;20.48;49.43;98754.66;4947628;28;20234;-63
2023/06/04 08:28:07;;;;;;;7.03;2.83;;;;;;;20.57;49.25;98748.06;4950862;28;20246;-63
2023/06/04 08:30:35;;;;;;;8.10;2.47;;;;;;;20.50;49.32;98745.44;4947921;28;20780;-63
2023/06/04 08:33:02;;;;;;;4.07;2.87;;;;;;;20.38;49.61;98752.44;4950085;28;20735;-63
2023/06/04 08:35:29;;;;;;;5.07;2.87;;;;;;;20.36;48.62;98751.81;4950535;28;20236;-63
2023/06/04 08:37:55;;;;;;;7.27;2.70;;;;;;;20.70;48.45;98754.28;4947709;28;20234;-63
2023/06/04 08:40:22;;;;;;;4.03;2.73;;;;;;;20.64;48.84;98755.97;4950526;28;20249;-63
2023/06/04 08:42:54;;;;;;;4.63;2.60;;;;;;;21.22;47.89;98762.09;4947607;28;20758;-63
2023/06/04 08:45:21;;;;;;;3.90;2.73;;;;;;;21.77;45.70;98766.72;4949744;28;20236;-63
2023/06/04 08:47:49;;;;;;;5.30;2.60;;;;;;;21.99;46.47;98768.16;4947025;28;20610;-63
2023/06/04 08:50:19;;;;;;;5.70;2.67;;;;;;;22.31;45.39;98771.44;4949921;28;20232;-63
2023/06/04 08:52:46;;;;;;;3.63;2.43;;;;;;;22.67;45.32;98774.25;4947383;28;20231;-63
2023/06/04 08:55:15;;;;;;;6.87;2.60;;;;;;;22.62;43.87;98776.78;4949791;28;20640;-63
2023/06/04 08:57:43;;;;;;;5.63;2.60;;;;;;;22.95;42.22;98772.84;4944912;28;20635;-63
2023/06/04 09:00:12;;;;;;;4.10;2.53;;;;;;;22.88;42.59;98788.88;4964303;28;20243;-63
2023/06/04 09:02:39;;;;;;;3.10;2.13;;;;;;;23.10;42.71;98793.69;4947337;28;20244;-63
2023/06/04 09:05:08;;;;;;;5.17;2.77;;;;;;;23.15;42.32;98796.47;4949791;28;20240;-63
2023/06/04 09:07:36;;;;;;;6.53;2.90;;;;;;;23.12;41.98;98796.94;4947187;28;20328;-63
2023/06/04 09:10:05;;;;;;;2.67;2.20;;;;;;;23.28;41.50;98801.63;4950096;28;20229;-63
2023/06/04 09:12:33;;;;;;;3.73;2.53;;;;;;;23.75;40.34;98802.69;4946356;28;20735;-63
2023/06/04 09:14:59;;;;;;;7.47;2.87;;;;;;;23.50;41.54;98802.91;4949222;28;20244;-63
2023/06/04 09:17:29;;;;;;;6.37;2.70;;;;;;;23.19;42.65;98804.84;4963329;28;20287;-63
2023/06/04 09:19:56;;;;;;;5.00;2.47;;;;;;;22.85;43.06;98805.31;4946529;28;20316;-63
2023/06/04 09:22:32;;;;;;;4.23;2.37;;;;;;;23.24;42.40;98810.31;4949927;28;20245;-63
2023/06/04 09:24:59;;;;;;;4.83;2.53;;;;;;;23.50;41.34;98808.22;4946696;28;20667;-63
2023/06/04 09:27:27;;;;;;;5.40;2.70;;;;;;;23.83;41.07;98807.66;4949739;28;20752;-64
2023/06/04 09:29:56;;;;;;;4.07;2.10;;;;;;;24.12;41.65;98805.06;4946353;28;20251;-64
2023/06/04 09:32:23;;;;;;;5.23;2.87;;;;;;;24.41;39.86;98807.78;4949406;28;20566;-64
2023/06/04 09:34:52;;;;;;;4.40;2.30;;;;;;;24.31;39.54;98802.25;4946171;28;20924;-64
2023/06/04 09:37:21;;;;;;;5.90;2.40;;;;;;;23.88;40.44;98805.06;4949145;28;20576;-64
2023/06/04 09:39:54;;;;;;;2.73;2.30;;;;;;;23.55;41.57;98797.69;4946825;28;20241;-63
2023/06/04 09:42:21;;;;;;;3.20;2.00;;;;;;;23.19;41.20;98794.19;4949342;28;20308;-63
2023/06/04 09:44:48;;;;;;;3.37;2.33;;;;;;;23.49;41.23;98794.13;4946635;28;20236;-63
2023/06/04 09:47:15;;;;;;;5.67;2.40;;;;;;;23.08;41.08;98793.94;4949431;28;20233;-63
2023/06/04 09:49:45;;;;;;;6.23;2.53;;;;;;;23.14;41.57;98794.84;4946097;28;20228;-63
2023/06/04 09:52:14;;;;;;;5.90;2.70;;;;;;;22.82;42.23;98785.31;4949057;28;20729;-63
2023/06/04 09:54:44;;;;;;;4.13;2.40;;;;;;;23.09;41.57;98781.41;4946245;28;20293;-63
2023/06/04 09:57:20;;;;;;;5.13;2.30;;;;;;;22.99;42.00;98777.47;4949344;28;20255;-64
2023/06/04 09:59:50;;;;;;;6.83;2.30;;;;;;;23.14;42.24;98779.69;4944651;28;20734;-63
2023/06/04 10:02:20;;;;;;;7.97;2.40;;;;;;;23.07;42.16;98767.53;4948997;28;20241;-63
2023/06/04 10:04:57;;;;;;;9.03;2.47;;;;;;;23.09;43.24;98771.59;4945447;28;20611;-63
2023/06/04 10:07:26;;;;;;;4.07;1.87;;;;;;;23.33;41.70;98768.16;4947947;28;20310;-63
2023/06/04 10:09:53;;;;;;;3.63;2.10;;;;;;;23.13;41.49;98763.94;4945697;28;20237;-63
2023/06/04 10:12:26;;;;;;;4.30;2.47;;;;;;;23.03;42.05;98761.03;4948843;28;20236;-64
2023/06/04 10:14:55;;;;;;;4.17;2.40;;;;;;;23.28;43.08;98760.88;4945301;28;20241;-63
2023/06/04 10:17:24;;;;;;;5.77;2.30;;;;;;;23.41;41.99;98755.28;4948367;28;20232;-63
2023/06/04 10:19:54;;;;;;;4.83;2.60;;;;;;;23.48;41.59;98749.03;4945742;28;20633;-63
2023/06/04 10:22:21;;;;;;;6.40;2.53;;;;;;;23.66;40.04;98756.13;4947889;28;20233;-63
2023/06/04 10:24:49;;;;;;;4.60;2.57;;;;;;;23.66;39.47;98748.13;4944661;28;20764;-63
2023/06/04 10:27:20;;;;;;;7.57;2.37;;;;;;;23.30;40.43;98748.16;4948526;28;20240;-64
2023/06/04 10:29:47;;;;;;;4.60;2.47;;;;;;;23.45;39.58;98745.00;4945562;28;20265;-63
2023/06/04 10:32:13;;;;;;;6.53;2.60;;;;;;;23.58;40.48;98739.44;4948527;28;20233;-63
2023/06/04 10:34:45;;;;;;;6.73;2.20;;;;;;;23.69;39.27;98745.78;4949823;28;20320;-64
2023/06/04 10:37:20;;;;;;;5.87;2.67;;;;;;;23.82;39.09;98738.59;4947676;28;20321;-64
2023/06/04 10:39:53;;;;;;;6.60;2.50;;;;;;;23.53;39.08;98735.84;4945589;28;20323;-63
2023/06/04 10:42:21;;;;;;;6.67;2.30;;;;;;;23.65;39.05;98731.31;4947935;28;20335;-63
2023/06/04 10:44:49;;;;;;;4.00;2.67;;;;;;;23.76;39.14;98737.69;4945264;28;20229;-63
2023/06/04 10:47:22;;;;;;;4.60;2.60;;;;;;;23.80;38.36;98730.00;4947492;28;20237;-63
2023/06/04 10:49:50;;;;;;;3.60;2.80;;;;;;;24.01;38.00;98720.59;4944708;28;20316;-63
2023/06/04 10:52:17;;;;;;;5.87;2.57;;;;;;;24.06;38.47;98719.91;4947934;28;20827;-63
2023/06/04 10:54:46;;;;;;;3.10;2.57;;;;;;;24.32;36.91;98727.34;4943807;28;20233;-63
2023/06/04 10:57:15;;;;;;;5.57;2.47;;;;;;;24.21;36.37;98725.53;4948031;28;20233;-63
2023/06/04 10:59:54;;;;;;;10.27;3.00;;;;;;;24.31;36.68;98727.56;4946012;28;20236;-63
2023/06/04 11:02:21;;;;;;;3.83;2.60;;;;;;;24.13;36.43;98725.91;4948184;28;20251;-63
2023/06/04 11:04:48;;;;;;;6.57;3.10;;;;;;;24.32;35.65;98729.19;4945764;28;20244;-63
2023/06/04 11:07:15;;;;;;;5.70;2.97;;;;;;;24.43;35.81;98714.97;4963570;28;20780;-63
2023/06/04 11:09:49;;;;;;;4.10;2.70;;;;;;;24.50;36.46;98712.16;4945805;28;20223;-63
2023/06/04 11:12:17;;;;;;;8.67;2.77;;;;;;;24.29;37.48;98708.31;4947757;28;20240;-63
2023/06/04 11:14:54;;;;;;;4.40;2.73;;;;;;;24.40;37.09;98714.63;4944663;28;20233;-63
2023/06/04 11:17:21;;;;;;;5.67;3.00;;;;;;;24.70;36.76;98708.22;4947933;28;20244;-63
2023/06/04 11:19:48;;;;;;;9.07;3.77;;;;;;;25.08;36.66;98713.91;4945646;28;20240;-63
2023/06/04 11:22:15;;;;;;;5.97;3.60;;;;;;;25.20;35.65;98706.59;4948161;28;20258;-63
2023/06/04 11:24:45;;;;;;;4.83;3.27;;;;;;;25.22;36.37;98706.38;4944762;28;20325;-64
2023/06/04 11:27:12;;;;;;;3.90;3.47;;;;;;;25.34;34.81;98702.53;4946964;28;20243;-64
2023/06/04 11:29:50;;;;;;;5.47;3.53;;;;;;;25.58;34.20;98702.34;4943645;28;20234;-63
2023/06/04 11:32:22;;;;;;;5.43;4.27;;;;;;;24.75;33.60;98703.81;4947487;28;20231;-63
2023/06/04 11:34:49;;;;;;;4.57;3.47;;;;;;;24.82;34.18;98710.84;4944941;28;20246;-62
2023/06/04 11:37:19;;;;;;;5.27;3.03;;;;;;;24.94;34.03;98710.75;4946798;28;20316;-62
2023/06/04 11:39:46;;;;;;;9.67;3.00;;;;;;;25.15;34.62;98706.53;4944311;28;20233;-62